Time;durP1;ratioP1;P1;durP2;ratioP2;P2;SDS_P1;SDS_P2;PMS_P1;PMS_P2;Temp;Humidity;BMP_temperature;BMP_pressure;BME280_temperature;BME280_humidity;BME280_pressure;Samples;Min_cycle;Max_cycle;Signal;HPM_P1;HPM_P2
2022/07/31 00:00:06;;;;;;;1.77;1.35;;;;;;;27.46;44.00;101642.06;5021251;28;20030;-63
2022/07/31 00:02:32;;;;;;;1.80;1.33;;;;;;;27.48;43.72;101633.09;5032621;28;20048;-64
2022/07/31 00:04:57;;;;;;;3.75;1.60;;;;;;;27.45;43.73;101640.31;5031859;28;20018;-63
2022/07/31 00:07:22;;;;;;;3.40;1.50;;;;;;;27.44;44.02;101640.41;5023377;28;20029;-63
2022/07/31 00:09:50;;;;;;;1.75;1.40;;;;;;;27.43;43.87;101641.34;5021194;28;20480;-63
2022/07/31 00:12:16;;;;;;;1.83;1.50;;;;;;;27.43;43.93;101644.03;5027090;28;20032;-63
2022/07/31 00:14:42;;;;;;;1.50;1.40;;;;;;;27.43;43.97;101641.34;5039068;28;20040;-63
2022/07/31 00:17:07;;;;;;;1.88;1.40;;;;;;;27.41;43.84;101635.19;5040146;28;20088;-63
2022/07/31 00:19:33;;;;;;;2.47;1.40;;;;;;;27.42;43.83;101642.28;5040083;28;20025;-63
2022/07/31 00:21:58;;;;;;;1.70;1.40;;;;;;;27.41;44.07;101635.19;5030235;28;20056;-63
2022/07/31 00:24:24;;;;;;;1.83;1.50;;;;;;;27.40;43.79;101634.31;5022644;28;20510;-64
2022/07/31 00:26:49;;;;;;;2.25;1.50;;;;;;;27.39;43.90;101635.22;5028045;28;20038;-63
2022/07/31 00:29:15;;;;;;;1.70;1.33;;;;;;;27.38;44.09;101633.53;5033927;28;20029;-63
2022/07/31 00:31:40;;;;;;;2.47;1.60;;;;;;;27.37;43.95;101631.78;5031118;28;20045;-63
2022/07/31 00:34:05;;;;;;;1.63;1.40;;;;;;;27.38;43.81;101629.97;5030455;28;20034;-64
2022/07/31 00:36:31;;;;;;;1.98;1.40;;;;;;;27.37;43.86;101622.88;5052279;28;20122;-63
2022/07/31 00:38:57;;;;;;;1.88;1.50;;;;;;;27.35;43.79;101624.72;5033200;28;20016;-63
2022/07/31 00:41:22;;;;;;;1.95;1.48;;;;;;;27.35;43.91;101628.28;5030401;28;20068;-63
2022/07/31 00:43:48;;;;;;;2.47;1.45;;;;;;;27.35;43.98;101620.25;5034823;28;20715;-63
2022/07/31 00:46:13;;;;;;;2.42;1.50;;;;;;;27.33;43.93;101614.09;5025037;28;20076;-63
2022/07/31 00:48:38;;;;;;;2.03;1.40;;;;;;;27.33;44.12;101613.22;5038616;28;20034;-63
2022/07/31 00:51:04;;;;;;;3.35;1.60;;;;;;;27.34;43.85;101617.63;5027096;28;20040;-63
2022/07/31 00:53:29;;;;;;;2.00;1.52;;;;;;;27.33;43.89;101616.75;5037995;28;20138;-63
2022/07/31 00:55:56;;;;;;;1.63;1.40;;;;;;;27.33;44.02;101619.44;5022820;28;20072;-64
2022/07/31 00:58:21;;;;;;;1.70;1.33;;;;;;;27.31;43.77;101618.66;5039729;28;20080;-63
2022/07/31 01:00:47;;;;;;;1.92;1.60;;;;;;;27.31;44.14;101617.78;5023864;28;20034;-63
2022/07/31 01:03:13;;;;;;;1.60;1.30;;;;;;;27.31;43.82;101615.09;5030931;28;20399;-63
2022/07/31 01:05:38;;;;;;;1.67;1.30;;;;;;;27.31;43.99;101613.31;5029772;28;20032;-63
2022/07/31 01:08:04;;;;;;;1.80;1.50;;;;;;;27.31;44.00;101613.31;5029151;28;20076;-63
2022/07/31 01:11:20;;;;;;;1.77;1.48;;;;;;;27.30;43.81;101611.56;5036600;28;20041;-62
2022/07/31 01:14:00;;;;;;;2.00;1.58;;;;;;;27.31;43.96;101609.75;5029193;28;20044;-63
2022/07/31 01:16:29;;;;;;;1.63;1.40;;;;;;;27.30;44.09;101608.00;5036531;28;20026;-63
2022/07/31 01:18:57;;;;;;;2.60;1.40;;;;;;;27.28;43.78;101602.72;5027062;28;20029;-63
2022/07/31 01:21:35;;;;;;;2.10;1.40;;;;;;;27.27;44.11;101597.41;5025410;28;20030;-63
2022/07/31 01:24:48;;;;;;;2.17;1.30;;;;;;;27.28;44.08;101596.50;5040792;28;20628;-63
2022/07/31 01:27:29;;;;;;;1.75;1.40;;;;;;;27.27;43.71;101592.94;5035110;28;20041;-63
2022/07/31 01:29:57;;;;;;;1.88;1.40;;;;;;;27.26;44.07;101590.34;5027703;28;20033;-63
2022/07/31 01:32:31;;;;;;;2.08;1.48;;;;;;;27.26;44.01;101590.34;5036920;28;20104;-63
2022/07/31 01:35:13;;;;;;;3.05;1.48;;;;;;;27.25;43.83;101583.25;5029906;28;20045;-63
2022/07/31 01:37:47;;;;;;;2.63;1.35;;;;;;;27.25;43.99;101578.78;5026162;28;20057;-63
2022/07/31 01:40:15;;;;;;;1.95;1.40;;;;;;;27.25;44.03;101585.94;5039810;28;20482;-63
2022/07/31 01:42:49;;;;;;;1.50;1.30;;;;;;;27.23;43.65;101572.59;5037545;28;20025;-63
2022/07/31 01:45:18;;;;;;;1.50;1.40;;;;;;;27.25;43.80;101583.25;5028243;28;20049;-63
2022/07/31 01:47:44;;;;;;;1.92;1.38;;;;;;;27.23;43.94;101580.63;5019245;28;20021;-64
2022/07/31 01:50:11;;;;;;;3.72;1.50;;;;;;;27.23;43.86;101574.41;5034901;28;20041;-62
2022/07/31 01:52:39;;;;;;;2.20;1.42;;;;;;;27.22;43.87;101568.19;5033840;28;20040;-63
2022/07/31 01:55:06;;;;;;;1.70;1.40;;;;;;;27.20;43.96;101567.38;5033849;28;20034;-63
2022/07/31 01:57:33;;;;;;;2.30;1.50;;;;;;;27.20;43.75;101566.53;5023196;28;20033;-64
2022/07/31 02:00:03;;;;;;;2.22;1.60;;;;;;;27.20;44.02;101566.53;5038867;28;20558;-63
2022/07/31 02:02:29;;;;;;;1.73;1.50;;;;;;;27.19;43.78;101571.00;5042402;28;20025;-63
2022/07/31 02:04:56;;;;;;;1.80;1.40;;;;;;;27.20;44.11;101579.91;5029506;28;20080;-63
2022/07/31 02:07:23;;;;;;;1.45;1.30;;;;;;;27.19;44.08;101572.81;5038676;28;20495;-63
2022/07/31 02:09:49;;;;;;;1.70;1.40;;;;;;;27.18;43.87;101576.44;5030432;28;20037;-63
2022/07/31 02:12:16;;;;;;;1.95;1.40;;;;;;;27.17;44.09;101580.03;5030373;28;20061;-63
2022/07/31 02:14:43;;;;;;;1.60;1.40;;;;;;;27.17;44.02;101572.88;5032412;28;20057;-63
2022/07/31 02:17:10;;;;;;;3.42;1.50;;;;;;;27.16;44.12;101568.47;5028578;28;20037;-63
2022/07/31 02:19:39;;;;;;;1.40;1.30;;;;;;;27.16;43.98;101571.13;5035351;28;20030;-63
2022/07/31 02:22:05;;;;;;;2.30;1.40;;;;;;;27.15;43.86;101566.72;5029251;28;20029;-63
2022/07/31 02:24:31;;;;;;;2.03;1.40;;;;;;;27.15;44.19;101564.03;5028143;28;20543;-63
2022/07/31 02:26:57;;;;;;;1.40;1.30;;;;;;;27.15;43.96;101571.19;5027048;28;20060;-63
2022/07/31 02:29:23;;;;;;;1.70;1.42;;;;;;;27.15;43.77;101558.69;5041810;28;20029;-63
2022/07/31 02:31:50;;;;;;;2.38;1.50;;;;;;;27.15;43.83;101565.84;5041103;28;20052;-58
2022/07/31 02:34:17;;;;;;;1.38;1.20;;;;;;;27.13;44.09;101567.75;5036058;28;20025;-62
2022/07/31 02:36:44;;;;;;;1.60;1.30;;;;;;;27.13;44.00;101557.03;5038800;28;20041;-63
2022/07/31 02:39:11;;;;;;;1.40;1.30;;;;;;;27.12;43.94;101552.59;5039425;28;20037;-63
2022/07/31 02:41:38;;;;;;;1.90;1.40;;;;;;;27.13;44.08;101546.31;5036890;28;20112;-63
2022/07/31 02:44:04;;;;;;;1.70;1.40;;;;;;;27.11;43.96;101543.72;5021921;28;20034;-62
2022/07/31 02:46:30;;;;;;;1.60;1.50;;;;;;;27.11;43.93;101548.19;5020994;28;20054;-63
2022/07/31 02:48:56;;;;;;;1.88;1.30;;;;;;;27.10;44.24;101547.31;5028063;28;20089;-63
2022/07/31 02:51:22;;;;;;;2.67;1.50;;;;;;;27.10;44.05;101533.94;5030820;28;20077;-63
2022/07/31 02:53:48;;;;;;;1.63;1.30;;;;;;;27.11;43.92;101532.13;5020804;28;20061;-63
2022/07/31 02:56:15;;;;;;;1.40;1.30;;;;;;;27.09;44.11;101528.63;5025094;28;20049;-63
2022/07/31 02:58:40;;;;;;;1.40;1.30;;;;;;;27.09;43.85;101526.84;5037444;28;20076;-63
2022/07/31 03:01:07;;;;;;;1.70;1.50;;;;;;;27.06;44.08;101529.66;5028791;28;20026;-63
2022/07/31 03:03:32;;;;;;;1.38;1.27;;;;;;;27.07;44.02;101523.38;5032135;28;20077;-63
2022/07/31 03:05:58;;;;;;;2.00;1.40;;;;;;;27.08;44.26;101525.09;5024727;28;20029;-63
2022/07/31 03:08:23;;;;;;;1.67;1.50;;;;;;;27.08;43.81;101522.41;5032817;28;20110;-63
2022/07/31 03:10:49;;;;;;;1.70;1.40;;;;;;;27.08;43.93;101516.22;5022462;28;20030;-63
2022/07/31 03:13:15;;;;;;;1.95;1.40;;;;;;;27.07;43.69;101514.47;5031708;28;20438;-63
2022/07/31 03:15:42;;;;;;;2.30;1.50;;;;;;;27.06;43.87;101510.94;5034400;28;20041;-63
2022/07/31 03:18:13;;;;;;;2.25;1.40;;;;;;;27.06;43.91;101518.97;5032772;28;20116;-63
2022/07/31 03:20:40;;;;;;;1.50;1.30;;;;;;;27.04;43.90;101516.34;5027458;28;20030;-63
2022/07/31 03:23:05;;;;;;;2.00;1.40;;;;;;;27.04;43.95;101521.69;5033604;28;20027;-63
2022/07/31 03:25:32;;;;;;;1.60;1.40;;;;;;;27.04;43.84;101513.66;5021445;28;20152;-63
2022/07/31 03:27:58;;;;;;;1.45;1.27;;;;;;;27.05;44.14;101511.88;5022816;28;20026;-63
2022/07/31 03:30:25;;;;;;;1.50;1.33;;;;;;;27.05;43.95;101519.91;5032468;28;20500;-63
2022/07/31 03:32:54;;;;;;;2.65;1.30;;;;;;;27.04;44.03;101519.03;5025881;28;20034;-63
2022/07/31 03:35:20;;;;;;;2.10;1.38;;;;;;;27.05;43.83;101517.22;5024521;28;20025;-63
2022/07/31 03:37:46;;;;;;;1.33;1.23;;;;;;;27.03;44.04;101517.28;5023240;28;20030;-63
2022/07/31 03:40:12;;;;;;;1.50;1.30;;;;;;;27.02;44.01;101507.50;5031010;28;20408;-63
2022/07/31 03:42:37;;;;;;;1.45;1.30;;;;;;;27.03;44.11;101511.06;5032238;28;20044;-63
2022/07/31 03:45:05;;;;;;;1.45;1.30;;;;;;;27.00;44.29;101504.06;5023606;28;20069;-63
2022/07/31 03:47:31;;;;;;;1.50;1.30;;;;;;;27.01;44.08;101494.22;5028630;28;20076;-63
2022/07/31 03:49:59;;;;;;;2.15;1.50;;;;;;;27.01;44.02;101495.09;5047060;28;20045;-63
2022/07/31 03:52:25;;;;;;;1.75;1.40;;;;;;;26.99;43.97;101499.63;5038700;28;20053;-63
2022/07/31 03:54:50;;;;;;;1.83;1.42;;;;;;;26.99;43.96;101488.94;5020351;28;20049;-63
2022/07/31 03:57:17;;;;;;;1.70;1.60;;;;;;;27.00;44.30;101490.66;5020395;28;20365;-63
2022/07/31 03:59:42;;;;;;;1.60;1.50;;;;;;;27.01;43.89;101492.41;5031641;28;20046;-63
2022/07/31 04:02:09;;;;;;;1.60;1.40;;;;;;;26.99;44.21;101496.94;5054554;28;20075;-63
2022/07/31 04:04:36;;;;;;;2.65;1.48;;;;;;;26.99;43.92;101504.09;5032622;28;20044;-63
2022/07/31 04:07:01;;;;;;;1.55;1.40;;;;;;;26.99;44.11;101504.09;5035865;28;20029;-63
2022/07/31 04:09:28;;;;;;;2.33;1.50;;;;;;;26.98;44.24;101500.56;5027701;28;20104;-63
2022/07/31 04:11:53;;;;;;;1.40;1.30;;;;;;;26.97;44.30;101504.16;5031134;28;20044;-63
2022/07/31 04:14:18;;;;;;;1.95;1.50;;;;;;;26.96;44.00;101502.44;5021042;28;20049;-62
2022/07/31 04:16:44;;;;;;;1.50;1.40;;;;;;;26.96;43.95;101506.91;5021442;28;20045;-63
2022/07/31 04:19:09;;;;;;;1.70;1.30;;;;;;;26.97;44.00;101508.66;5020455;28;20041;-63
2022/07/31 04:21:34;;;;;;;2.03;1.50;;;;;;;26.96;44.00;101498.88;5051150;28;20507;-63
2022/07/31 04:24:00;;;;;;;2.08;1.40;;;;;;;26.96;44.11;101499.75;5036615;28;20029;-63
2022/07/31 04:26:27;;;;;;;1.60;1.30;;;;;;;26.96;44.19;101496.19;5034558;28;20179;-63
2022/07/31 04:28:53;;;;;;;1.50;1.40;;;;;;;26.94;44.20;101498.97;5025349;28;20120;-63
2022/07/31 04:31:18;;;;;;;1.50;1.33;;;;;;;26.93;43.95;101488.34;5030160;28;20053;-63
2022/07/31 04:33:44;;;;;;;1.67;1.40;;;;;;;26.93;43.93;101499.91;5026619;28;20048;-63
2022/07/31 04:36:09;;;;;;;1.60;1.50;;;;;;;26.93;44.34;101499.91;5035821;28;20040;-63
2022/07/31 04:38:35;;;;;;;1.60;1.30;;;;;;;26.93;43.96;101499.91;5025519;28;20028;-63
2022/07/31 04:41:00;;;;;;;1.55;1.30;;;;;;;26.93;43.96;101496.34;5039043;28;20033;-63
2022/07/31 04:43:25;;;;;;;1.60;1.42;;;;;;;26.94;44.19;101498.09;5023039;28;20045;-63
2022/07/31 04:45:52;;;;;;;1.50;1.40;;;;;;;26.93;44.26;101496.34;5033563;28;20057;-63
2022/07/31 04:48:17;;;;;;;1.90;1.60;;;;;;;26.93;44.04;101499.03;5034461;28;20049;-63
2022/07/31 04:50:43;;;;;;;1.92;1.30;;;;;;;26.93;43.83;101488.34;5029587;28;20037;-63
2022/07/31 04:53:08;;;;;;;2.35;1.40;;;;;;;26.92;44.00;101484.78;5052147;28;20030;-63
2022/07/31 04:55:33;;;;;;;1.80;1.42;;;;;;;26.91;43.97;101480.38;5019575;28;20030;-63
2022/07/31 04:57:59;;;;;;;1.42;1.33;;;;;;;26.91;44.04;101477.69;5028583;28;20034;-62
2022/07/31 05:00:25;;;;;;;1.95;1.60;;;;;;;26.90;43.80;101472.41;5026546;28;20063;-63
2022/07/31 05:02:51;;;;;;;1.50;1.40;;;;;;;26.89;43.99;101474.22;5019912;28;20056;-63
2022/07/31 05:05:17;;;;;;;1.52;1.38;;;;;;;26.89;44.17;101478.72;5028856;28;20033;-63
2022/07/31 05:07:43;;;;;;;1.50;1.40;;;;;;;26.90;44.08;101472.41;5039333;28;20108;-63
2022/07/31 05:10:09;;;;;;;1.77;1.40;;;;;;;26.90;43.88;101477.75;5035299;28;20057;-62
2022/07/31 05:12:34;;;;;;;1.60;1.40;;;;;;;26.89;43.93;101471.56;5019458;28;20515;-63
2022/07/31 05:15:00;;;;;;;1.73;1.42;;;;;;;26.90;44.08;101467.91;5026635;28;20039;-63
2022/07/31 05:17:25;;;;;;;2.67;1.40;;;;;;;26.90;43.96;101467.03;5030172;28;20045;-63
2022/07/31 05:19:51;;;;;;;1.50;1.40;;;;;;;26.90;44.13;101465.25;5034387;28;20080;-63
2022/07/31 05:22:16;;;;;;;1.70;1.40;;;;;;;26.90;44.08;101454.53;5018501;28;20038;-62
2022/07/31 05:24:42;;;;;;;1.88;1.40;;;;;;;26.90;43.97;101467.91;5033353;28;20692;-63
2022/07/31 05:27:07;;;;;;;1.50;1.40;;;;;;;26.91;43.92;101460.75;5025705;28;20034;-62
2022/07/31 05:29:33;;;;;;;1.90;1.50;;;;;;;26.90;43.90;101451.00;5019131;28;20041;-62
2022/07/31 05:31:59;;;;;;;1.70;1.40;;;;;;;26.90;44.11;101451.88;5024376;28;20029;-63
2022/07/31 05:34:24;;;;;;;1.50;1.40;;;;;;;26.90;44.10;101448.31;5033227;28;20400;-62
2022/07/31 05:36:49;;;;;;;1.50;1.40;;;;;;;26.90;43.88;101446.50;5022007;28;20052;-62
2022/07/31 05:39:16;;;;;;;2.15;1.58;;;;;;;26.90;43.93;101442.97;5027739;28;20052;-63
2022/07/31 05:41:42;;;;;;;1.67;1.40;;;;;;;26.92;44.04;101449.13;5033087;28;20108;-63
2022/07/31 05:44:07;;;;;;;1.70;1.40;;;;;;;26.90;43.99;101451.00;5037277;28;20097;-63
2022/07/31 05:46:33;;;;;;;1.60;1.50;;;;;;;26.90;43.90;101453.66;5036923;28;20403;-63
2022/07/31 05:48:58;;;;;;;1.88;1.40;;;;;;;26.89;44.11;101457.31;5025514;28;20057;-63
2022/07/31 05:51:24;;;;;;;1.52;1.40;;;;;;;26.89;44.08;101466.22;5024841;28;20132;-63
2022/07/31 05:53:49;;;;;;;1.52;1.40;;;;;;;26.89;43.92;101457.31;5038653;28;20494;-62
2022/07/31 05:56:14;;;;;;;2.03;1.58;;;;;;;26.89;43.87;101450.16;5022367;28;20064;-63
2022/07/31 05:58:40;;;;;;;1.73;1.40;;;;;;;26.91;43.94;101453.59;5029999;28;20033;-63
2022/07/31 06:01:05;;;;;;;2.40;1.50;;;;;;;26.89;44.14;101457.31;5028252;28;20030;-63
2022/07/31 06:03:34;;;;;;;1.85;1.40;;;;;;;26.89;43.96;101450.16;5038499;28;20049;-63
2022/07/31 06:06:00;;;;;;;1.73;1.52;;;;;;;26.89;43.90;101451.94;5038613;28;20514;-63
2022/07/31 06:08:27;;;;;;;1.48;1.35;;;;;;;26.90;43.82;101451.00;5033037;28;20034;-63
2022/07/31 06:10:53;;;;;;;1.52;1.42;;;;;;;26.89;43.86;101454.63;5039790;28;20044;-63
2022/07/31 06:13:23;;;;;;;2.13;1.48;;;;;;;26.88;43.80;101447.50;5024235;28;20651;-63
2022/07/31 06:15:48;;;;;;;1.70;1.50;;;;;;;26.89;43.84;101441.25;5037949;28;20028;-63
2022/07/31 06:18:14;;;;;;;1.50;1.40;;;;;;;26.89;43.90;101446.59;5036986;28;20038;-63
2022/07/31 06:20:40;;;;;;;1.95;1.30;;;;;;;26.89;43.96;101449.28;5022026;28;20385;-63
2022/07/31 06:23:05;;;;;;;1.70;1.40;;;;;;;26.88;43.81;101445.72;5022548;28;20033;-63
2022/07/31 06:25:30;;;;;;;1.60;1.50;;;;;;;26.88;43.97;101451.09;5029458;28;20033;-63
2022/07/31 06:27:56;;;;;;;2.05;1.52;;;;;;;26.89;43.72;101449.28;5021621;28;20026;-63
2022/07/31 06:30:21;;;;;;;1.52;1.40;;;;;;;26.87;43.78;101446.63;5028476;28;20117;-63
2022/07/31 06:32:47;;;;;;;1.65;1.40;;;;;;;26.88;43.86;101432.34;5030515;28;20018;-63
2022/07/31 06:35:12;;;;;;;1.40;1.30;;;;;;;26.88;43.61;101426.09;5025256;28;20089;-63
2022/07/31 06:37:38;;;;;;;1.70;1.60;;;;;;;26.89;43.76;101434.09;5030082;28;20034;-63
2022/07/31 06:40:04;;;;;;;1.63;1.50;;;;;;;26.89;43.76;101435.91;5022721;28;20022;-64
2022/07/31 06:42:29;;;;;;;1.58;1.48;;;;;;;26.91;43.94;101429.53;5024293;28;20056;-63
2022/07/31 06:44:54;;;;;;;2.58;1.50;;;;;;;26.90;43.86;101438.47;5028419;28;20107;-63
2022/07/31 06:47:23;;;;;;;1.65;1.45;;;;;;;26.92;43.78;101430.41;5031612;28;20037;-63
2022/07/31 06:49:49;;;;;;;1.92;1.42;;;;;;;26.90;43.84;101430.44;5021787;28;20046;-63
2022/07/31 06:52:15;;;;;;;1.60;1.50;;;;;;;26.89;43.74;101427.88;5032124;28;20048;-64
2022/07/31 06:54:41;;;;;;;1.63;1.33;;;;;;;26.90;44.15;101417.06;5011750;28;20111;-65
2022/07/31 06:57:07;;;;;;;1.75;1.30;;;;;;;26.91;43.90;101415.28;5016499;28;20104;-65
2022/07/31 06:59:32;;;;;;;2.25;1.50;;;;;;;26.91;43.84;101420.63;5013289;28;20026;-64
2022/07/31 07:01:57;;;;;;;1.50;1.40;;;;;;;26.91;43.75;101423.31;5029158;28;20037;-64
2022/07/31 07:04:23;;;;;;;1.80;1.50;;;;;;;26.92;43.90;101422.38;5016453;28;20032;-64
2022/07/31 07:06:48;;;;;;;1.90;1.40;;;;;;;26.92;43.72;101423.25;5014411;28;20034;-64
2022/07/31 07:09:13;;;;;;;2.15;1.48;;;;;;;26.92;43.79;101419.69;5026618;28;20034;-64
2022/07/31 07:11:39;;;;;;;1.83;1.50;;;;;;;26.93;44.02;101416.09;5018715;28;20030;-64
2022/07/31 07:14:05;;;;;;;1.58;1.48;;;;;;;26.93;43.96;101413.41;5018534;28;20034;-64
2022/07/31 07:16:30;;;;;;;1.85;1.50;;;;;;;26.93;43.84;101410.72;5017885;28;20033;-64
2022/07/31 07:18:56;;;;;;;2.08;1.60;;;;;;;26.99;43.88;101402.41;5018375;28;20422;-63
2022/07/31 07:21:21;;;;;;;2.08;1.60;;;;;;;26.98;44.26;101406.91;5012408;28;20041;-63
2022/07/31 07:23:46;;;;;;;1.75;1.50;;;;;;;26.99;44.31;101414.00;5017917;28;20028;-63
2022/07/31 07:26:12;;;;;;;2.50;1.58;;;;;;;26.98;44.24;101409.56;5017331;28;20065;-63
2022/07/31 07:28:37;;;;;;;1.83;1.50;;;;;;;26.95;44.38;101399.03;5029718;28;20040;-63
2022/07/31 07:31:04;;;;;;;2.28;1.50;;;;;;;26.95;44.24;101392.81;5030728;28;20044;-62
2022/07/31 07:33:30;;;;;;;1.95;1.40;;;;;;;26.95;44.47;101392.81;5026891;28;20034;-63
2022/07/31 07:35:55;;;;;;;2.42;1.60;;;;;;;26.96;44.61;101397.19;5022769;28;20030;-63
2022/07/31 07:38:21;;;;;;;2.05;1.50;;;;;;;26.98;44.36;101389.97;5015364;28;20396;-63
2022/07/31 07:40:47;;;;;;;2.30;1.77;;;;;;;26.97;44.29;101396.25;5018390;28;22071;-63
2022/07/31 07:43:12;;;;;;;1.73;1.63;;;;;;;26.98;44.19;101395.31;5028311;28;20041;-63
2022/07/31 07:45:38;;;;;;;3.22;1.60;;;;;;;26.98;44.22;101390.84;5023042;28;20038;-62
2022/07/31 07:48:05;;;;;;;1.92;1.60;;;;;;;26.97;44.19;101383.75;5025357;28;20030;-63
2022/07/31 07:50:30;;;;;;;2.75;1.58;;;;;;;26.98;44.23;101382.81;5025038;28;20498;-62
2022/07/31 07:52:56;;;;;;;3.20;1.70;;;;;;;26.97;44.08;101382.88;5015661;28;20030;-63
2022/07/31 07:55:22;;;;;;;1.88;1.50;;;;;;;26.98;44.47;101379.28;5015790;28;20436;-63
2022/07/31 07:57:47;;;;;;;2.25;1.52;;;;;;;26.96;44.26;101390.03;5024539;28;20072;-63
2022/07/31 08:00:13;;;;;;;1.67;1.58;;;;;;;26.96;44.06;101394.53;5023353;28;20053;-63
2022/07/31 08:02:40;;;;;;;1.83;1.60;;;;;;;26.96;44.25;101386.50;5027302;28;20087;-63
2022/07/31 08:05:05;;;;;;;1.83;1.50;;;;;;;26.97;44.25;101385.56;5022419;28;20047;-62
2022/07/31 08:07:35;;;;;;;2.05;1.60;;;;;;;26.97;44.30;101386.44;5023001;28;20042;-63
2022/07/31 08:10:01;;;;;;;1.98;1.60;;;;;;;26.96;44.12;101383.81;5022024;28;20029;-63
2022/07/31 08:12:27;;;;;;;2.83;1.50;;;;;;;26.97;44.10;101385.56;5021706;28;20030;-63
2022/07/31 08:14:53;;;;;;;4.70;1.80;;;;;;;26.97;44.13;101383.75;5018264;28;20045;-63
2022/07/31 08:17:18;;;;;;;2.65;1.73;;;;;;;26.98;44.43;101388.16;5026444;28;20029;-64
2022/07/31 08:19:44;;;;;;;6.07;2.90;;;;;;;26.97;44.16;101378.41;5014251;28;20025;-63
2022/07/31 08:22:10;;;;;;;6.15;3.80;;;;;;;26.99;44.12;101379.22;5009430;28;20033;-65
2022/07/31 08:24:35;;;;;;;4.75;3.60;;;;;;;27.00;43.86;101390.78;5012233;28;20383;-65
2022/07/31 08:29:44;;;;;;;;;;;;;;;27.00;44.42;101386.31;5015779;28;20526;-65
2022/07/31 08:32:13;;;;;;;8.37;4.90;;;;;;;27.00;44.24;101391.66;5012344;28;19921;-64
2022/07/31 08:34:39;;;;;;;8.93;4.60;;;;;;;26.98;44.32;101390.84;5012113;28;20331;-64
2022/07/31 08:37:08;;;;;;;6.15;4.55;;;;;;;26.97;44.43;101391.78;5024186;28;20065;-64
2022/07/31 08:39:34;;;;;;;9.50;5.22;;;;;;;26.97;44.32;101399.81;5019532;28;20022;-64
2022/07/31 08:42:04;;;;;;;8.05;4.90;;;;;;;26.96;44.46;101395.38;5023008;28;20037;-64
2022/07/31 08:44:30;;;;;;;5.80;4.47;;;;;;;26.99;44.23;101403.28;5008917;28;20038;-64
2022/07/31 08:46:56;;;;;;;10.55;4.80;;;;;;;26.99;44.19;101405.97;5017113;28;20506;-64
2022/07/31 08:49:25;;;;;;;8.95;4.88;;;;;;;26.99;44.26;101405.97;5017027;28;20030;-64
2022/07/31 08:51:50;;;;;;;7.97;4.78;;;;;;;27.00;44.37;101404.16;5019799;28;20037;-64
2022/07/31 08:54:18;;;;;;;8.77;4.95;;;;;;;26.99;44.47;101405.09;5025907;28;20041;-64
2022/07/31 08:56:45;;;;;;;8.77;5.00;;;;;;;26.98;44.67;101404.22;5009141;28;20057;-64
2022/07/31 08:59:11;;;;;;;7.43;5.40;;;;;;;26.98;44.81;101406.03;5023374;28;20037;-64
2022/07/31 09:01:37;;;;;;;8.48;4.97;;;;;;;26.98;44.70;101400.69;5026582;28;20053;-64
2022/07/31 09:04:03;;;;;;;8.25;5.03;;;;;;;26.97;44.85;101397.13;5023385;28;20056;-64
2022/07/31 09:06:29;;;;;;;8.38;5.20;;;;;;;26.97;45.44;101402.47;5028714;28;20187;-64
2022/07/31 09:08:55;;;;;;;7.57;5.20;;;;;;;26.98;45.61;101403.34;5027293;28;20137;-64
2022/07/31 09:11:21;;;;;;;7.68;5.20;;;;;;;26.98;45.82;101401.56;5024220;28;20392;-64
2022/07/31 09:13:57;;;;;;;8.43;5.40;;;;;;;26.99;45.82;101411.31;5026408;28;20049;-65
2022/07/31 09:16:23;;;;;;;8.70;5.00;;;;;;;27.00;45.67;101409.50;5025880;28;20034;-65
2022/07/31 09:18:59;;;;;;;6.80;4.88;;;;;;;27.00;46.13;101409.50;5013677;28;20080;-64
2022/07/31 09:21:25;;;;;;;8.82;5.00;;;;;;;27.00;46.04;101407.72;5017437;28;20040;-64
2022/07/31 09:23:53;;;;;;;7.93;5.13;;;;;;;27.00;46.32;101401.47;5028682;28;20369;-65
2022/07/31 09:26:18;;;;;;;6.47;4.47;;;;;;;26.99;46.24;101399.75;5024485;28;20534;-64
2022/07/31 09:28:46;;;;;;;8.05;4.95;;;;;;;26.98;46.44;101398.88;5008672;28;20030;-65
2022/07/31 09:31:14;;;;;;;7.28;4.97;;;;;;;26.98;46.56;101406.03;5011404;28;20029;-65
2022/07/31 09:33:44;;;;;;;7.30;4.65;;;;;;;26.98;46.25;101406.91;5015596;28;20026;-64
2022/07/31 09:36:09;;;;;;;8.30;4.20;;;;;;;26.98;46.58;101398.88;5026288;28;20045;-65
2022/07/31 09:38:40;;;;;;;6.50;4.15;;;;;;;27.00;46.18;101402.34;5017457;28;20022;-65
2022/07/31 09:41:12;;;;;;;10.95;4.32;;;;;;;27.00;46.14;101399.69;5011699;28;20097;-64
2022/07/31 09:43:38;;;;;;;6.25;4.10;;;;;;;27.03;46.22;101401.31;5021872;28;20030;-65
2022/07/31 09:46:05;;;;;;;5.97;3.75;;;;;;;27.03;45.85;101393.28;5032843;28;20051;-64
2022/07/31 09:48:31;;;;;;;5.03;3.63;;;;;;;27.05;45.88;101397.66;5027058;28;20053;-64
2022/07/31 09:51:07;;;;;;;6.57;3.40;;;;;;;27.36;45.19;101391.72;5022595;28;20430;-66
2022/07/31 09:53:52;;;;;;;4.60;3.20;;;;;;;27.45;44.95;101388.56;5023237;28;20341;-66
2022/07/31 09:56:28;;;;;;;5.43;3.20;;;;;;;27.38;45.42;101389.84;5021336;28;20029;-65
2022/07/31 09:58:54;;;;;;;4.72;3.30;;;;;;;27.33;45.77;101396.31;5014611;28;20022;-71
2022/07/31 10:01:20;;;;;;;5.13;3.13;;;;;;;27.30;45.65;101389.34;5022200;28;20080;-66
2022/07/31 10:03:49;;;;;;;5.60;3.03;;;;;;;27.28;45.65;101387.66;5018423;28;20084;-68
